createdAt,value
2022-08-29T00:00:31.123Z,469.80
2022-08-29T00:03:03.208Z,470.85
2022-08-29T00:05:40.111Z,464.20
2022-08-29T00:08:11.089Z,468.00
2022-08-29T00:10:39.140Z,453.80
2022-08-29T00:13:08.535Z,487.05
2022-08-29T00:15:41.665Z,475.17
2022-08-29T00:18:14.635Z,464.25
2022-08-29T00:20:42.532Z,454.17
2022-08-29T00:23:10.041Z,445.15
2022-08-29T00:25:37.578Z,450.73
2022-08-29T00:28:05.121Z,482.95
2022-08-29T00:30:33.360Z,456.70
2022-08-29T00:33:00.021Z,478.42
2022-08-29T00:35:32.077Z,473.33
2022-08-29T00:37:59.125Z,458.17
2022-08-29T00:40:34.777Z,465.30
2022-08-29T00:43:01.986Z,447.63
2022-08-29T00:45:29.569Z,451.48
2022-08-29T00:48:06.187Z,459.00
2022-08-29T00:50:39.006Z,460.13
2022-08-29T00:53:10.344Z,477.10
2022-08-29T00:55:39.041Z,485.65
2022-08-29T00:58:18.395Z,501.23
2022-08-29T01:00:46.236Z,504.98
2022-08-29T01:03:13.570Z,500.85
2022-08-29T01:05:41.457Z,508.25
2022-08-29T01:08:08.162Z,521.03
2022-08-29T01:10:57.522Z,526.00
2022-08-29T01:13:30.039Z,511.08
2022-08-29T01:15:58.206Z,516.65
2022-08-29T01:18:27.451Z,518.30
2022-08-29T01:21:15.474Z,521.53
2022-08-29T01:23:46.156Z,523.13
2022-08-29T01:26:13.297Z,522.95
2022-08-29T01:28:43.578Z,511.53
2022-08-29T01:31:15.535Z,496.35
2022-08-29T01:34:02.949Z,495.42
2022-08-29T01:37:04.030Z,511.23
2022-08-29T01:39:34.253Z,510.48
2022-08-29T01:42:05.854Z,490.85
2022-08-29T01:44:33.463Z,504.10
2022-08-29T01:47:07.329Z,512.35
2022-08-29T01:49:38.767Z,505.43
2022-08-29T01:52:08.644Z,497.88
2022-08-29T01:54:35.341Z,494.00
2022-08-29T01:57:02.054Z,495.35
2022-08-29T01:59:30.639Z,491.95
2022-08-29T02:02:08.451Z,485.23
2022-08-29T02:04:35.463Z,485.25
2022-08-29T02:07:07.320Z,471.53
2022-08-29T02:09:37.265Z,476.75
2022-08-29T02:12:07.063Z,469.40
2022-08-29T02:14:35.479Z,471.67
2022-08-29T02:17:07.204Z,475.00
2022-08-29T02:19:37.448Z,471.05
2022-08-29T02:22:05.369Z,467.50
2022-08-29T02:24:32.613Z,467.67
2022-08-29T02:26:59.368Z,465.13
2022-08-29T02:29:35.238Z,466.67
2022-08-29T02:32:11.867Z,456.83
2022-08-29T02:34:38.699Z,456.77
2022-08-29T02:37:06.040Z,451.77
2022-08-29T02:39:33.881Z,442.63
2022-08-29T02:42:00.881Z,437.52
2022-08-29T02:44:27.799Z,440.30
2022-08-29T02:46:54.535Z,439.55
2022-08-29T02:49:23.851Z,436.25
2022-08-29T02:51:50.448Z,432.23
2022-08-29T02:54:17.245Z,423.05
2022-08-29T02:56:43.852Z,423.75
2022-08-29T02:59:10.672Z,424.63
2022-08-29T03:01:39.071Z,437.38
2022-08-29T03:04:06.367Z,436.88
2022-08-29T03:06:33.509Z,426.77
2022-08-29T03:09:00.253Z,454.13
2022-08-29T03:11:28.606Z,424.45
2022-08-29T03:13:57.624Z,410.77
2022-08-29T03:16:25.734Z,413.33
2022-08-29T03:18:52.439Z,418.65
2022-08-29T03:21:22.038Z,414.98
2022-08-29T03:23:49.834Z,430.45
2022-08-29T03:26:17.472Z,429.35
2022-08-29T03:28:44.519Z,425.47
2022-08-29T03:31:11.378Z,427.05
2022-08-29T03:33:38.529Z,426.80
2022-08-29T03:36:08.806Z,431.13
2022-08-29T03:38:41.282Z,425.08
2022-08-29T03:41:08.940Z,417.42
2022-08-29T03:43:35.718Z,408.83
2022-08-29T03:46:02.346Z,411.67
2022-08-29T03:48:35.046Z,394.48
2022-08-29T03:51:02.503Z,411.67
2022-08-29T03:53:30.726Z,408.60
2022-08-29T03:55:58.043Z,398.00
2022-08-29T03:58:25.265Z,407.90
2022-08-29T04:00:52.045Z,410.38
2022-08-29T04:03:20.097Z,397.27
2022-08-29T04:05:49.113Z,392.58
2022-08-29T04:08:21.000Z,384.25
2022-08-29T04:10:47.702Z,389.50
2022-08-29T04:13:14.949Z,388.27
2022-08-29T04:15:42.795Z,375.23
2022-08-29T04:18:11.031Z,391.52
2022-08-29T04:20:40.123Z,363.50
2022-08-29T04:23:07.583Z,366.52
2022-08-29T04:25:37.954Z,369.17
2022-08-29T04:28:07.022Z,374.75
2022-08-29T04:30:34.939Z,381.25
2022-08-29T04:33:01.652Z,368.52
2022-08-29T04:35:29.841Z,363.95
2022-08-29T04:37:57.054Z,371.58
2022-08-29T04:40:23.784Z,358.20
2022-08-29T04:42:50.794Z,371.57
2022-08-29T04:45:20.974Z,352.70
2022-08-29T04:47:47.868Z,366.42
2022-08-29T04:50:20.747Z,364.27
2022-08-29T04:52:49.422Z,379.07
2022-08-29T04:55:21.488Z,362.77
2022-08-29T04:57:50.466Z,345.45
2022-08-29T05:00:23.281Z,359.45
2022-08-29T05:02:50.023Z,353.60
2022-08-29T05:05:17.081Z,345.73
2022-08-29T05:07:46.317Z,330.55
2022-08-29T05:10:17.279Z,333.52
2022-08-29T05:12:45.161Z,348.40
2022-08-29T05:15:13.299Z,362.23
2022-08-29T05:17:40.336Z,348.55
2022-08-29T05:20:08.523Z,359.02
2022-08-29T05:22:36.301Z,349.83
2022-08-29T05:25:04.918Z,346.13
2022-08-29T05:27:31.928Z,353.35
2022-08-29T05:29:58.577Z,347.33
2022-08-29T05:32:25.459Z,336.40
2022-08-29T05:34:52.120Z,346.85
2022-08-29T05:37:20.875Z,334.75
2022-08-29T05:39:48.651Z,338.83
2022-08-29T05:42:17.694Z,345.23
2022-08-29T05:44:44.532Z,350.58
2022-08-29T05:47:15.272Z,354.30
2022-08-29T05:49:46.077Z,345.90
2022-08-29T05:52:15.622Z,331.40
2022-08-29T05:54:44.057Z,337.42
2022-08-29T05:57:18.990Z,337.15
2022-08-29T05:59:52.093Z,328.38
2022-08-29T06:02:20.478Z,330.88
2022-08-29T06:04:49.866Z,328.05
2022-08-29T06:07:17.119Z,301.55
2022-08-29T06:09:44.964Z,327.45
2022-08-29T06:12:13.832Z,324.88
2022-08-29T06:14:41.440Z,291.92
2022-08-29T06:17:16.985Z,296.70
2022-08-29T06:19:43.869Z,290.70
2022-08-29T06:22:11.422Z,316.95
2022-08-29T06:24:44.559Z,297.13
2022-08-29T06:27:12.439Z,303.75
2022-08-29T06:29:43.396Z,310.70
2022-08-29T06:32:11.570Z,300.08
2022-08-29T06:34:38.286Z,283.27
2022-08-29T06:37:04.872Z,273.20
2022-08-29T06:39:31.790Z,289.38
2022-08-29T06:41:58.406Z,282.50
2022-08-29T06:44:26.537Z,282.27
2022-08-29T06:46:58.227Z,293.63
2022-08-29T06:49:25.796Z,300.67
2022-08-29T06:51:56.942Z,266.13
2022-08-29T06:54:27.940Z,269.75
2022-08-29T06:56:56.477Z,276.77
2022-08-29T06:59:23.078Z,266.60
2022-08-29T07:01:50.079Z,267.38
2022-08-29T07:04:16.924Z,273.92
2022-08-29T07:06:50.799Z,269.77
2022-08-29T07:09:17.714Z,260.00
2022-08-29T07:11:44.549Z,256.00
2022-08-29T07:14:12.344Z,273.13
2022-08-29T07:16:40.299Z,265.15
2022-08-29T07:19:09.041Z,265.27
2022-08-29T07:21:36.105Z,261.90
2022-08-29T07:24:04.890Z,274.02
2022-08-29T07:26:41.398Z,250.93
2022-08-29T07:29:14.994Z,258.13
2022-08-29T07:31:41.964Z,251.43
2022-08-29T07:34:09.305Z,241.98
2022-08-29T07:36:38.912Z,272.88
2022-08-29T07:39:08.310Z,258.38
2022-08-29T07:41:35.377Z,246.40
2022-08-29T07:44:02.089Z,234.15
2022-08-29T07:46:29.305Z,246.35
2022-08-29T07:48:58.097Z,228.27
2022-08-29T07:51:25.419Z,214.27
2022-08-29T07:53:52.785Z,228.68
2022-08-29T07:56:23.161Z,212.13
2022-08-29T07:58:51.855Z,202.85
2022-08-29T08:01:21.390Z,199.13
2022-08-29T08:03:50.651Z,213.68
2022-08-29T08:06:22.402Z,243.25
2022-08-29T08:08:49.973Z,245.90
2022-08-29T08:11:17.869Z,248.93
2022-08-29T08:13:44.644Z,236.23
2022-08-29T08:16:15.287Z,237.40
2022-08-29T08:18:43.657Z,248.37
2022-08-29T08:21:11.376Z,247.23
2022-08-29T08:23:38.573Z,249.75
2022-08-29T08:26:06.312Z,234.50
2022-08-29T08:28:33.231Z,228.48
2022-08-29T08:31:05.918Z,236.98
2022-08-29T08:33:35.478Z,237.07
2022-08-29T08:36:06.207Z,255.57
2022-08-29T08:38:32.854Z,243.10
2022-08-29T08:41:10.760Z,256.02
2022-08-29T08:43:50.377Z,241.02
2022-08-29T08:46:19.667Z,216.38
2022-08-29T08:48:48.319Z,222.30
2022-08-29T08:51:21.702Z,214.82
2022-08-29T08:53:56.547Z,219.37
2022-08-29T08:56:33.204Z,203.88
2022-08-29T08:59:26.273Z,184.05
2022-08-29T09:02:07.536Z,172.35
2022-08-29T09:04:56.660Z,145.63
2022-08-29T09:07:50.770Z,149.85
2022-08-29T09:10:47.551Z,159.85
2022-08-29T09:13:31.930Z,165.85
2022-08-29T09:16:01.282Z,165.30
2022-08-29T09:18:36.246Z,162.50
2022-08-29T09:21:39.354Z,175.23
2022-08-29T09:24:06.161Z,185.82
2022-08-29T09:26:32.976Z,186.65
2022-08-29T09:28:59.585Z,195.93
2022-08-29T09:31:35.533Z,197.32
2022-08-29T09:34:12.763Z,194.52
2022-08-29T09:36:47.701Z,202.23
2022-08-29T09:39:20.490Z,168.77
2022-08-29T09:41:54.697Z,165.10
2022-08-29T09:44:30.805Z,155.35
2022-08-29T09:47:21.951Z,162.23
2022-08-29T09:50:07.329Z,173.77
2022-08-29T09:52:35.389Z,182.13
2022-08-29T09:55:24.791Z,172.32
2022-08-29T09:58:03.846Z,180.35
2022-08-29T10:00:40.602Z,177.25
2022-08-29T10:03:10.754Z,178.40
2022-08-29T10:05:45.270Z,196.50
2022-08-29T10:08:35.187Z,214.32
2022-08-29T10:11:19.974Z,225.80
2022-08-29T10:13:54.889Z,220.98
2022-08-29T10:16:27.778Z,213.50
2022-08-29T10:19:04.429Z,183.13
2022-08-29T10:21:49.188Z,178.27
2022-08-29T10:24:32.974Z,179.95
2022-08-29T10:27:28.496Z,166.68
2022-08-29T10:30:00.812Z,159.35
2022-08-29T10:33:04.513Z,154.00
2022-08-29T10:36:00.988Z,157.68
2022-08-29T10:38:36.971Z,151.27
2022-08-29T10:41:21.701Z,155.02
2022-08-29T10:44:09.167Z,149.30
2022-08-29T10:47:02.685Z,145.10
2022-08-29T10:49:48.179Z,143.60
2022-08-29T10:52:29.948Z,131.70
2022-08-29T10:54:59.498Z,122.60
2022-08-29T10:57:47.308Z,123.90
2022-08-29T11:00:24.439Z,129.00
2022-08-29T11:03:50.871Z,122.65
2022-08-29T11:06:43.505Z,144.27
2022-08-29T11:09:25.460Z,119.50
2022-08-29T11:12:17.578Z,112.85
2022-08-29T11:15:02.946Z,112.65
2022-08-29T11:17:34.831Z,115.53
2022-08-29T11:20:13.714Z,127.38
2022-08-29T11:22:43.956Z,124.72
2022-08-29T11:25:20.963Z,130.88
2022-08-29T11:28:06.430Z,112.78
2022-08-29T11:31:00.278Z,96.97
2022-08-29T11:33:49.043Z,92.10
2022-08-29T11:36:28.014Z,85.10
2022-08-29T11:39:10.009Z,86.03
2022-08-29T11:41:46.811Z,80.70
2022-08-29T11:44:29.609Z,84.90
2022-08-29T11:46:57.731Z,77.83
2022-08-29T11:49:30.506Z,68.03
2022-08-29T11:52:13.457Z,79.60
2022-08-29T11:54:43.194Z,88.10
2022-08-29T11:57:12.209Z,89.50
2022-08-29T11:59:50.915Z,110.50
2022-08-29T12:02:32.810Z,97.63
2022-08-29T12:05:01.037Z,75.15
2022-08-29T12:07:40.705Z,79.67
2022-08-29T12:10:29.405Z,61.25
2022-08-29T12:13:06.440Z,58.08
2022-08-29T12:15:33.151Z,52.50
2022-08-29T12:18:03.805Z,54.30
2022-08-29T12:20:30.794Z,57.30
2022-08-29T12:23:03.850Z,65.53
2022-08-29T12:25:44.661Z,54.30
2022-08-29T12:28:20.974Z,37.90
2022-08-29T12:31:08.350Z,22.75
2022-08-29T12:34:01.207Z,14.93
2022-08-29T12:36:36.581Z,7.90
2022-08-29T12:39:29.364Z,3.80
2022-08-29T12:42:09.095Z,2.42
2022-08-29T12:44:38.314Z,2.20
2022-08-29T12:47:14.226Z,1.73
2022-08-29T12:49:51.747Z,1.60
2022-08-29T12:52:21.137Z,1.40
2022-08-29T12:54:48.194Z,1.30
2022-08-29T12:57:33.015Z,1.30
2022-08-29T13:00:02.095Z,1.70
2022-08-29T13:02:32.557Z,1.70
2022-08-29T13:05:00.283Z,1.90
2022-08-29T13:07:28.717Z,1.90
2022-08-29T13:09:59.019Z,2.33
2022-08-29T13:12:27.176Z,2.28
2022-08-29T13:14:56.059Z,2.20
2022-08-29T13:17:34.340Z,1.90
2022-08-29T13:20:38.692Z,1.92
2022-08-29T13:23:10.351Z,1.55
2022-08-29T13:25:44.052Z,1.80
2022-08-29T13:28:23.655Z,1.70
2022-08-29T13:31:29.687Z,1.87
2022-08-29T13:33:56.575Z,1.70
2022-08-29T13:36:40.871Z,1.90
2022-08-29T13:39:25.060Z,1.30
2022-08-29T13:41:57.573Z,1.48
2022-08-29T13:44:27.189Z,1.55
2022-08-29T13:47:01.204Z,1.60
2022-08-29T13:49:32.300Z,1.60
2022-08-29T13:52:00.762Z,1.70
2022-08-29T13:54:35.713Z,1.40
2022-08-29T13:57:07.895Z,1.67
2022-08-29T13:59:36.790Z,1.77
2022-08-29T14:02:11.513Z,1.75
2022-08-29T14:04:40.620Z,1.80
2022-08-29T14:07:12.041Z,1.60
2022-08-29T14:09:42.973Z,1.90
2022-08-29T14:12:14.041Z,1.60
2022-08-29T14:14:41.989Z,1.60
2022-08-29T14:17:09.018Z,1.65
2022-08-29T14:19:39.398Z,2.05
2022-08-29T14:22:06.216Z,1.60
2022-08-29T14:24:33.905Z,1.85
2022-08-29T14:27:02.699Z,1.50
2022-08-29T14:29:34.023Z,1.70
2022-08-29T14:32:03.194Z,1.95
2022-08-29T14:34:32.808Z,1.88
2022-08-29T14:37:01.122Z,1.90
2022-08-29T14:39:28.774Z,1.90
2022-08-29T14:41:59.475Z,1.80
2022-08-29T14:44:27.321Z,1.90
2022-08-29T14:46:54.106Z,2.00
2022-08-29T14:49:20.805Z,1.75
2022-08-29T14:51:47.586Z,1.90
2022-08-29T14:54:15.196Z,1.90
2022-08-29T14:56:50.611Z,1.55
2022-08-29T14:59:22.468Z,1.90
2022-08-29T15:01:54.333Z,1.90
2022-08-29T15:04:36.336Z,1.63
2022-08-29T15:07:11.696Z,1.63
2022-08-29T15:09:41.633Z,1.98
2022-08-29T15:12:11.506Z,1.83
2022-08-29T15:14:39.571Z,1.90
2022-08-29T15:17:06.504Z,1.80
2022-08-29T15:22:22.702Z,1.60
2022-08-29T15:24:50.782Z,1.75
2022-08-29T15:27:21.571Z,1.65
2022-08-29T15:29:50.517Z,1.70
2022-08-29T15:32:19.587Z,1.98
2022-08-29T15:34:49.311Z,1.70
2022-08-29T15:37:16.669Z,2.13
2022-08-29T15:39:43.519Z,2.00
2022-08-29T15:42:11.794Z,2.13
2022-08-29T15:44:44.089Z,1.90
2022-08-29T15:47:11.458Z,2.28
2022-08-29T15:49:39.484Z,1.85
2022-08-29T15:52:13.794Z,2.10
2022-08-29T15:54:40.815Z,2.13
2022-08-29T15:57:08.053Z,2.10
2022-08-29T15:59:57.112Z,2.43
2022-08-29T16:02:29.605Z,2.28
2022-08-29T16:04:58.974Z,2.20
2022-08-29T16:07:29.243Z,2.00
2022-08-29T16:10:01.057Z,2.28
2022-08-29T16:12:32.488Z,2.30
2022-08-29T16:15:01.052Z,2.10
2022-08-29T16:17:31.492Z,2.05
2022-08-29T16:20:00.428Z,2.15
2022-08-29T16:22:28.355Z,2.35
2022-08-29T16:24:55.060Z,2.00
2022-08-29T16:27:24.953Z,2.10
2022-08-29T16:29:53.202Z,1.70
2022-08-29T16:32:20.722Z,1.80
2022-08-29T16:34:47.354Z,1.77
2022-08-29T16:37:14.592Z,1.80
2022-08-29T16:39:41.305Z,1.88
2022-08-29T16:42:08.092Z,2.10
2022-08-29T16:44:34.840Z,2.20
2022-08-29T16:47:04.897Z,2.00
2022-08-29T16:49:31.685Z,1.65
2022-08-29T16:52:01.096Z,1.90
2022-08-29T16:54:28.516Z,1.83
2022-08-29T16:56:59.230Z,1.90
2022-08-29T16:59:37.106Z,1.92
2022-08-29T17:02:04.973Z,1.83
2022-08-29T17:04:31.717Z,2.20
2022-08-29T17:07:02.408Z,1.98
2022-08-29T17:09:30.638Z,2.20
2022-08-29T17:12:02.169Z,2.20
2022-08-29T17:14:30.372Z,2.80
2022-08-29T17:16:57.230Z,2.50
2022-08-29T17:19:24.908Z,2.00
2022-08-29T17:21:52.017Z,2.30
2022-08-29T17:24:18.949Z,2.25
2022-08-29T17:26:48.911Z,2.22
2022-08-29T17:29:18.463Z,1.90
2022-08-29T17:31:45.901Z,1.70
2022-08-29T17:34:12.860Z,1.80
2022-08-29T17:36:41.798Z,1.70
2022-08-29T17:39:08.954Z,1.73
2022-08-29T17:41:39.728Z,1.95
2022-08-29T17:44:09.957Z,1.90
2022-08-29T17:46:36.789Z,2.20
2022-08-29T17:49:07.871Z,2.20
2022-08-29T17:51:37.402Z,2.40
2022-08-29T17:54:10.368Z,2.80
2022-08-29T17:56:58.199Z,2.70
2022-08-29T17:59:28.756Z,2.00
2022-08-29T18:01:56.279Z,2.10
2022-08-29T18:04:31.973Z,2.50
2022-08-29T18:06:58.793Z,2.60
2022-08-29T18:09:25.858Z,2.83
2022-08-29T18:11:53.442Z,2.80
2022-08-29T18:14:23.745Z,2.70
2022-08-29T18:16:52.280Z,3.33
2022-08-29T18:19:22.023Z,3.40
2022-08-29T18:21:50.346Z,3.40
2022-08-29T18:24:17.772Z,3.70
2022-08-29T18:26:46.587Z,3.90
2022-08-29T18:29:13.385Z,3.70
2022-08-29T18:31:41.806Z,3.60
2022-08-29T18:34:12.827Z,3.90
2022-08-29T18:36:46.242Z,3.90
2022-08-29T18:39:15.195Z,4.70
2022-08-29T18:41:42.028Z,4.90
2022-08-29T18:44:11.934Z,5.47
2022-08-29T18:46:42.356Z,5.53
2022-08-29T18:49:17.373Z,6.45
2022-08-29T18:51:43.983Z,6.10
2022-08-29T18:54:10.606Z,6.25
2022-08-29T18:56:42.379Z,6.20
2022-08-29T18:59:09.098Z,8.02
2022-08-29T19:01:38.668Z,5.30
2022-08-29T19:04:06.512Z,5.90
2022-08-29T19:06:33.133Z,5.60
2022-08-29T19:09:00.100Z,6.57
2022-08-29T19:11:28.253Z,7.65
2022-08-29T19:13:55.092Z,10.18
2022-08-29T19:16:23.779Z,7.22
2022-08-29T19:18:51.452Z,6.07
2022-08-29T19:21:18.780Z,6.05
2022-08-29T19:23:52.706Z,8.18
2022-08-29T19:26:28.384Z,11.07
2022-08-29T19:29:01.313Z,13.70
2022-08-29T19:31:29.072Z,18.23
2022-08-29T19:33:56.457Z,20.13
2022-08-29T19:36:24.447Z,21.35
2022-08-29T19:38:52.522Z,21.73
2022-08-29T19:41:19.905Z,35.97
2022-08-29T19:43:46.633Z,24.40
2022-08-29T19:46:18.110Z,26.50
2022-08-29T19:48:48.685Z,35.47
2022-08-29T19:51:19.894Z,30.38
2022-08-29T19:53:48.451Z,32.60
2022-08-29T19:56:15.214Z,28.88
2022-08-29T19:58:42.867Z,39.85
2022-08-29T20:01:11.659Z,24.33
2022-08-29T20:03:40.608Z,25.88
2022-08-29T20:06:08.559Z,37.45
2022-08-29T20:08:41.798Z,29.98
2022-08-29T20:11:13.732Z,42.05
2022-08-29T20:13:41.036Z,33.05
2022-08-29T20:16:13.930Z,36.45
2022-08-29T20:18:42.590Z,37.50
2022-08-29T20:21:10.990Z,42.85
2022-08-29T20:23:38.576Z,44.70
2022-08-29T20:26:15.441Z,44.42
2022-08-29T20:28:42.401Z,40.72
2022-08-29T20:31:09.666Z,39.13
2022-08-29T20:33:39.711Z,58.30
2022-08-29T20:36:26.598Z,44.10
2022-08-29T20:38:54.338Z,50.75
2022-08-29T20:41:21.906Z,45.30
2022-08-29T20:43:49.040Z,47.90
2022-08-29T20:46:15.747Z,43.63
2022-08-29T20:48:42.565Z,56.88
2022-08-29T20:51:10.229Z,46.65
2022-08-29T20:53:42.871Z,59.03
2022-08-29T20:56:09.801Z,58.20
2022-08-29T20:58:38.708Z,48.30
2022-08-29T21:01:05.784Z,49.00
2022-08-29T21:03:57.510Z,46.08
2022-08-29T21:06:24.927Z,57.00
2022-08-29T21:08:53.822Z,55.40
2022-08-29T21:11:21.008Z,57.25
2022-08-29T21:13:53.351Z,48.15
2022-08-29T21:16:20.653Z,60.72
2022-08-29T21:18:53.208Z,50.10
2022-08-29T21:21:24.477Z,54.28
2022-08-29T21:23:55.805Z,63.90
2022-08-29T21:26:23.796Z,67.88
2022-08-29T21:28:51.908Z,69.88
2022-08-29T21:31:24.799Z,77.65
2022-08-29T21:33:51.640Z,73.25
2022-08-29T21:36:22.954Z,89.72
2022-08-29T21:38:54.157Z,78.47
2022-08-29T21:41:22.105Z,97.40
2022-08-29T21:43:48.841Z,92.53
2022-08-29T21:46:18.425Z,88.07
2022-08-29T21:48:45.835Z,129.80
2022-08-29T21:51:14.096Z,129.40
2022-08-29T21:53:42.513Z,122.25
2022-08-29T21:56:09.168Z,143.88
2022-08-29T21:58:37.113Z,139.67
2022-08-29T22:01:04.879Z,137.38
2022-08-29T22:03:31.562Z,137.30
2022-08-29T22:05:58.238Z,128.45
2022-08-29T22:08:25.765Z,131.75
2022-08-29T22:10:52.378Z,126.47
2022-08-29T22:13:19.084Z,137.38
2022-08-29T22:16:04.532Z,131.15
2022-08-29T22:18:31.377Z,138.45
2022-08-29T22:21:00.468Z,142.20
2022-08-29T22:23:27.267Z,147.23
2022-08-29T22:25:54.073Z,147.80
2022-08-29T22:28:21.255Z,137.93
2022-08-29T22:30:48.799Z,136.73
2022-08-29T22:33:16.372Z,147.02
2022-08-29T22:35:44.075Z,147.40
2022-08-29T22:38:10.913Z,132.25
2022-08-29T22:40:37.696Z,135.40
2022-08-29T22:43:04.435Z,145.17
2022-08-29T22:45:32.227Z,142.80
2022-08-29T22:47:58.959Z,140.90
2022-08-29T22:50:26.330Z,143.23
2022-08-29T22:52:57.084Z,148.27
2022-08-29T22:57:49.711Z,144.93
2022-08-29T23:00:19.661Z,138.83
2022-08-29T23:02:46.912Z,139.98
2022-08-29T23:05:13.892Z,150.05
2022-08-29T23:07:40.931Z,141.50
2022-08-29T23:10:10.071Z,142.15
2022-08-29T23:12:37.510Z,144.98
2022-08-29T23:15:08.144Z,151.15
2022-08-29T23:17:34.968Z,147.38
2022-08-29T23:20:02.055Z,147.52
2022-08-29T23:22:28.954Z,143.48
2022-08-29T23:24:58.375Z,143.48
2022-08-29T23:27:29.880Z,131.95
2022-08-29T23:29:57.410Z,124.97
2022-08-29T23:32:24.156Z,118.18
2022-08-29T23:34:52.130Z,121.78
2022-08-29T23:37:18.776Z,123.32
2022-08-29T23:39:46.725Z,107.03
2022-08-29T23:42:13.398Z,103.20
2022-08-29T23:44:40.017Z,105.25
2022-08-29T23:47:08.495Z,107.43
2022-08-29T23:49:35.557Z,98.50
2022-08-29T23:52:03.132Z,104.63
2022-08-29T23:54:31.423Z,111.53
2022-08-29T23:56:58.214Z,126.47
2022-08-29T23:59:43.548Z,127.53
